sensor_id;sensor_type;location;lat;lon;timestamp;pressure;altitude;pressure_sealevel;temperature;humidity
31771;BME280;18343;50.152;8.182;2023-04-03T00:01:06;98415.13;;;5.60;98.11
31771;BME280;18343;50.152;8.182;2023-04-03T00:03:50;98423.41;;;5.57;97.61
31771;BME280;18343;50.152;8.182;2023-04-03T00:06:35;98418.34;;;5.54;97.86
31771;BME280;18343;50.152;8.182;2023-04-03T00:09:21;98419.47;;;5.52;98.04
31771;BME280;18343;50.152;8.182;2023-04-03T00:12:05;98420.16;;;5.54;97.97
31771;BME280;18343;50.152;8.182;2023-04-03T00:14:50;98414.97;;;5.52;97.85
31771;BME280;18343;50.152;8.182;2023-04-03T00:17:35;98419.47;;;5.52;97.84
31771;BME280;18343;50.152;8.182;2023-04-03T00:20:19;98421.28;;;5.51;97.90
31771;BME280;18343;50.152;8.182;2023-04-03T00:23:04;98423.53;;;5.56;98.11
31771;BME280;18343;50.152;8.182;2023-04-03T00:25:50;98420.59;;;5.59;98.43
31771;BME280;18343;50.152;8.182;2023-04-03T00:28:35;98424.69;;;5.63;98.54
31771;BME280;18343;50.152;8.182;2023-04-03T00:31:20;98419.34;;;5.63;98.25
31771;BME280;18343;50.152;8.182;2023-04-03T00:34:04;98417.81;;;5.60;97.89
31771;BME280;18343;50.152;8.182;2023-04-03T00:36:49;98413.00;;;5.54;97.64
31771;BME280;18343;50.152;8.182;2023-04-03T00:39:33;98421.28;;;5.51;98.04
31771;BME280;18343;50.152;8.182;2023-04-03T00:42:19;98419.47;;;5.52;98.08
31771;BME280;18343;50.152;8.182;2023-04-03T00:45:28;98416.66;;;5.53;97.91
31771;BME280;18343;50.152;8.182;2023-04-03T00:48:18;98413.28;;;5.51;98.24
31771;BME280;18343;50.152;8.182;2023-04-03T00:51:07;98412.56;;;5.49;97.75
31771;BME280;18343;50.152;8.182;2023-04-03T00:53:56;98415.38;;;5.48;97.81
31771;BME280;18343;50.152;8.182;2023-04-03T00:56:43;98408.50;;;5.45;97.69
31771;BME280;18343;50.152;8.182;2023-04-03T00:59:33;98405.00;;;5.44;98.03
31771;BME280;18343;50.152;8.182;2023-04-03T01:02:18;98408.66;;;5.43;98.21
31771;BME280;18343;50.152;8.182;2023-04-03T01:05:04;98406.69;;;5.46;98.25
31771;BME280;18343;50.152;8.182;2023-04-03T01:07:49;98410.75;;;5.50;98.50
31771;BME280;18343;50.152;8.182;2023-04-03T01:10:35;98405.28;;;5.51;98.72
31771;BME280;18343;50.152;8.182;2023-04-03T01:13:25;98405.97;;;5.53;98.20
31771;BME280;18343;50.152;8.182;2023-04-03T01:16:12;98413.28;;;5.51;98.13
31771;BME280;18343;50.152;8.182;2023-04-03T01:18:56;98411.72;;;5.49;98.42
31771;BME280;18343;50.152;8.182;2023-04-03T01:22:10;98411.44;;;5.52;98.21
31771;BME280;18343;50.152;8.182;2023-04-03T01:24:59;98409.91;;;5.49;98.77
31771;BME280;18343;50.152;8.182;2023-04-03T01:27:44;98409.91;;;5.49;98.61
31771;BME280;18343;50.152;8.182;2023-04-03T01:30:33;98410.34;;;5.54;98.60
31771;BME280;18343;50.152;8.182;2023-04-03T01:33:20;98412.03;;;5.55;98.79
31771;BME280;18343;50.152;8.182;2023-04-03T01:36:06;98415.41;;;5.57;98.88
31771;BME280;18343;50.152;8.182;2023-04-03T01:38:52;98405.28;;;5.51;97.91
31771;BME280;18343;50.152;8.182;2023-04-03T01:41:37;98407.53;;;5.46;98.06
31771;BME280;18343;50.152;8.182;2023-04-03T01:44:21;98410.19;;;5.46;98.53
31771;BME280;18343;50.152;8.182;2023-04-03T01:47:07;98405.53;;;5.48;98.33
31771;BME280;18343;50.152;8.182;2023-04-03T01:49:53;98414.38;;;5.49;98.52
31771;BME280;18343;50.152;8.182;2023-04-03T01:52:37;98411.44;;;5.52;98.74
31771;BME280;18343;50.152;8.182;2023-04-03T01:55:22;98414.00;;;5.53;98.40
31771;BME280;18343;50.152;8.182;2023-04-03T01:58:06;98414.44;;;5.58;98.87
31771;BME280;18343;50.152;8.182;2023-04-03T02:00:51;98415.41;;;5.57;98.68
31771;BME280;18343;50.152;8.182;2023-04-03T02:03:36;98417.09;;;5.58;98.50
31771;BME280;18343;50.152;8.182;2023-04-03T02:06:22;98416.25;;;5.58;98.64
31771;BME280;18343;50.152;8.182;2023-04-03T02:09:06;98412.59;;;5.59;98.58
31771;BME280;18343;50.152;8.182;2023-04-03T02:11:51;98411.47;;;5.61;98.82
31771;BME280;18343;50.152;8.182;2023-04-03T02:14:36;98414.16;;;5.61;98.85
31771;BME280;18343;50.152;8.182;2023-04-03T02:17:20;98406.28;;;5.60;98.62
31771;BME280;18343;50.152;8.182;2023-04-03T02:20:06;98409.53;;;5.63;98.77
31771;BME280;18343;50.152;8.182;2023-04-03T02:22:52;98406.72;;;5.65;98.82
31771;BME280;18343;50.152;8.182;2023-04-03T02:25:37;98406.28;;;5.60;97.61
31771;BME280;18343;50.152;8.182;2023-04-03T02:28:21;98412.88;;;5.56;97.64
31771;BME280;18343;50.152;8.182;2023-04-03T02:31:06;98408.50;;;5.55;97.92
31771;BME280;18343;50.152;8.182;2023-04-03T02:33:51;98408.38;;;5.56;98.68
31771;BME280;18343;50.152;8.182;2023-04-03T02:36:36;98407.25;;;5.59;98.31
31771;BME280;18343;50.152;8.182;2023-04-03T02:39:22;98403.47;;;5.61;98.50
31771;BME280;18343;50.152;8.182;2023-04-03T02:42:06;98401.38;;;5.65;98.53
31771;BME280;18343;50.152;8.182;2023-04-03T02:44:51;98406.59;;;5.66;98.29
31771;BME280;18343;50.152;8.182;2023-04-03T02:47:36;98406.00;;;5.63;97.89
31771;BME280;18343;50.152;8.182;2023-04-03T02:50:20;98410.38;;;5.64;98.16
31771;BME280;18343;50.152;8.182;2023-04-03T02:53:05;98405.88;;;5.64;98.06
31771;BME280;18343;50.152;8.182;2023-04-03T02:55:50;98408.69;;;5.63;98.06
31771;BME280;18343;50.152;8.182;2023-04-03T02:58:35;98409.66;;;5.62;97.49
31771;BME280;18343;50.152;8.182;2023-04-03T03:01:20;98402.91;;;5.58;98.09
31771;BME280;18343;50.152;8.182;2023-04-03T03:04:04;98400.94;;;5.60;98.08
31771;BME280;18343;50.152;8.182;2023-04-03T03:06:49;98407.13;;;5.60;97.94
31771;BME280;18343;50.152;8.182;2023-04-03T03:09:33;98408.09;;;5.59;97.76
31771;BME280;18343;50.152;8.182;2023-04-03T03:12:20;98402.34;;;5.54;97.48
31771;BME280;18343;50.152;8.182;2023-04-03T03:15:06;98403.59;;;5.50;97.24
31771;BME280;18343;50.152;8.182;2023-04-03T03:17:51;98402.19;;;5.46;97.59
31771;BME280;18343;50.152;8.182;2023-04-03T03:20:35;98409.50;;;5.44;97.74
31771;BME280;18343;50.152;8.182;2023-04-03T03:23:21;98409.50;;;5.44;97.44
31771;BME280;18343;50.152;8.182;2023-04-03T03:26:08;98413.00;;;5.44;97.56
31771;BME280;18343;50.152;8.182;2023-04-03T03:28:55;98413.69;;;5.37;97.03
31771;BME280;18343;50.152;8.182;2023-04-03T03:31:39;98421.94;;;5.34;97.05
31771;BME280;18343;50.152;8.182;2023-04-03T03:34:24;98420.53;;;5.30;97.72
31771;BME280;18343;50.152;8.182;2023-04-03T03:37:08;98426.56;;;5.32;97.86
31771;BME280;18343;50.152;8.182;2023-04-03T03:39:53;98422.22;;;5.31;97.41
31771;BME280;18343;50.152;8.182;2023-04-03T03:42:37;98412.09;;;5.25;97.30
31771;BME280;18343;50.152;8.182;2023-04-03T03:45:24;98413.31;;;5.21;97.32
31771;BME280;18343;50.152;8.182;2023-04-03T03:48:08;98413.63;;;5.18;97.72
31771;BME280;18343;50.152;8.182;2023-04-03T03:50:53;98410.38;;;5.14;97.24
31771;BME280;18343;50.152;8.182;2023-04-03T03:53:38;98410.91;;;5.08;97.00
31771;BME280;18343;50.152;8.182;2023-04-03T03:56:22;98412.16;;;5.04;97.24
31771;BME280;18343;50.152;8.182;2023-04-03T03:59:06;98409.88;;;4.99;97.92
31771;BME280;18343;50.152;8.182;2023-04-03T04:01:52;98414.50;;;4.97;97.64
31771;BME280;18343;50.152;8.182;2023-04-03T04:04:37;98413.94;;;4.94;97.69
31771;BME280;18343;50.152;8.182;2023-04-03T04:07:22;98413.66;;;4.97;97.51
31771;BME280;18343;50.152;8.182;2023-04-03T04:10:08;98419.69;;;4.89;97.25
31771;BME280;18343;50.152;8.182;2023-04-03T04:12:53;98410.97;;;4.87;97.30
31771;BME280;18343;50.152;8.182;2023-04-03T04:15:38;98412.47;;;4.80;96.61
31771;BME280;18343;50.152;8.182;2023-04-03T04:18:23;98416.75;;;4.71;96.61
31771;BME280;18343;50.152;8.182;2023-04-03T04:21:08;98411.16;;;4.65;96.46
31771;BME280;18343;50.152;8.182;2023-04-03T04:23:53;98427.44;;;4.51;96.75
31771;BME280;18343;50.152;8.182;2023-04-03T04:26:37;98423.69;;;4.53;96.73
31771;BME280;18343;50.152;8.182;2023-04-03T04:29:22;98426.47;;;4.52;97.11
31771;BME280;18343;50.152;8.182;2023-04-03T04:32:06;98419.47;;;4.51;96.76
31771;BME280;18343;50.152;8.182;2023-04-03T04:34:52;98420.31;;;4.51;96.69
31771;BME280;18343;50.152;8.182;2023-04-03T04:37:37;98427.69;;;4.48;96.65
31771;BME280;18343;50.152;8.182;2023-04-03T04:40:21;98432.31;;;4.46;96.79
31771;BME280;18343;50.152;8.182;2023-04-03T04:43:06;98423.34;;;4.47;97.04
31771;BME280;18343;50.152;8.182;2023-04-03T04:46:01;98429.41;;;4.49;96.23
31771;BME280;18343;50.152;8.182;2023-04-03T04:48:46;98429.66;;;4.46;97.03
31771;BME280;18343;50.152;8.182;2023-04-03T04:51:31;98424.72;;;4.41;96.90
31771;BME280;18343;50.152;8.182;2023-04-03T04:54:16;98438.56;;;4.35;96.83
31771;BME280;18343;50.152;8.182;2023-04-03T04:57:01;98438.69;;;4.33;96.57
31771;BME280;18343;50.152;8.182;2023-04-03T04:59:45;98441.88;;;4.27;96.30
31771;BME280;18343;50.152;8.182;2023-04-03T05:02:30;98437.75;;;4.23;96.57
31771;BME280;18343;50.152;8.182;2023-04-03T05:05:14;98441.03;;;4.27;96.49
31771;BME280;18343;50.152;8.182;2023-04-03T05:08:01;98436.31;;;4.19;95.78
31771;BME280;18343;50.152;8.182;2023-04-03T05:10:46;98451.00;;;4.14;96.31
31771;BME280;18343;50.152;8.182;2023-04-03T05:13:31;98452.81;;;4.13;96.87
31771;BME280;18343;50.152;8.182;2023-04-03T05:16:15;98448.56;;;4.11;96.28
31771;BME280;18343;50.152;8.182;2023-04-03T05:19:00;98444.38;;;4.08;96.35
31771;BME280;18343;50.152;8.182;2023-04-03T05:21:44;98451.66;;;4.06;96.30
31771;BME280;18343;50.152;8.182;2023-04-03T05:24:30;98449.25;;;4.03;96.11
31771;BME280;18343;50.152;8.182;2023-04-03T05:27:15;98461.56;;;4.04;96.37
31771;BME280;18343;50.152;8.182;2023-04-03T05:30:00;98467.75;;;4.04;96.26
31771;BME280;18343;50.152;8.182;2023-04-03T05:32:44;98466.91;;;4.04;96.43
31771;BME280;18343;50.152;8.182;2023-04-03T05:35:29;98462.66;;;4.01;95.88
31771;BME280;18343;50.152;8.182;2023-04-03T05:38:13;98466.66;;;3.96;95.94
31771;BME280;18343;50.152;8.182;2023-04-03T05:41:00;98469.09;;;3.99;96.60
31771;BME280;18343;50.152;8.182;2023-04-03T05:43:44;98475.75;;;3.93;96.52
31771;BME280;18343;50.152;8.182;2023-04-03T05:46:29;98480.09;;;3.94;96.37
31771;BME280;18343;50.152;8.182;2023-04-03T05:49:13;98477.44;;;3.94;96.25
31771;BME280;18343;50.152;8.182;2023-04-03T05:51:58;98476.34;;;3.97;97.02
31771;BME280;18343;50.152;8.182;2023-04-03T05:54:43;98478.16;;;3.96;96.63
31771;BME280;18343;50.152;8.182;2023-04-03T05:57:29;98487.97;;;3.96;96.50
31771;BME280;18343;50.152;8.182;2023-04-03T06:00:15;98488.22;;;3.93;96.17
31771;BME280;18343;50.152;8.182;2023-04-03T06:03:00;98500.78;;;3.91;96.04
31771;BME280;18343;50.152;8.182;2023-04-03T06:05:44;98490.41;;;3.88;96.26
31771;BME280;18343;50.152;8.182;2023-04-03T06:08:29;98497.16;;;3.92;96.80
31771;BME280;18343;50.152;8.182;2023-04-03T06:11:13;98497.03;;;3.93;96.77
31771;BME280;18343;50.152;8.182;2023-04-03T06:13:59;98504.19;;;3.93;96.25
31771;BME280;18343;50.152;8.182;2023-04-03T06:16:44;98506.00;;;3.92;96.44
31771;BME280;18343;50.152;8.182;2023-04-03T06:19:28;98506.47;;;3.86;95.89
31771;BME280;18343;50.152;8.182;2023-04-03T06:22:13;98515.31;;;3.87;96.27
31771;BME280;18343;50.152;8.182;2023-04-03T06:24:58;98516.28;;;3.86;96.04
31771;BME280;18343;50.152;8.182;2023-04-03T06:27:42;98522.31;;;3.88;96.49
31771;BME280;18343;50.152;8.182;2023-04-03T06:30:28;98515.00;;;3.69;96.49
31771;BME280;18343;50.152;8.182;2023-04-03T06:33:13;98513.28;;;3.79;96.44
31771;BME280;18343;50.152;8.182;2023-04-03T06:35:58;98516.56;;;3.83;96.55
31771;BME280;18343;50.152;8.182;2023-04-03T06:38:43;98524.00;;;3.89;97.07
31771;BME280;18343;50.152;8.182;2023-04-03T06:41:28;98519.41;;;4.02;96.86
31771;BME280;18343;50.152;8.182;2023-04-03T06:44:12;98523.38;;;4.07;96.68
31771;BME280;18343;50.152;8.182;2023-04-03T06:46:58;98523.34;;;4.19;96.95
31771;BME280;18343;50.152;8.182;2023-04-03T06:49:44;98529.00;;;4.25;97.58
31771;BME280;18343;50.152;8.182;2023-04-03T06:52:28;98531.47;;;4.38;97.49
31771;BME280;18343;50.152;8.182;2023-04-03T06:55:13;98533.84;;;4.52;97.54
31771;BME280;18343;50.152;8.182;2023-04-03T06:57:58;98537.88;;;4.67;97.53
31771;BME280;18343;50.152;8.182;2023-04-03T07:00:43;98536.03;;;4.79;97.13
31771;BME280;18343;50.152;8.182;2023-04-03T07:03:29;98530.56;;;4.81;97.54
31771;BME280;18343;50.152;8.182;2023-04-03T07:06:15;98538.22;;;4.95;97.33
31771;BME280;18343;50.152;8.182;2023-04-03T07:09:00;98544.84;;;5.00;97.46
31771;BME280;18343;50.152;8.182;2023-04-03T07:11:45;98546.34;;;5.14;97.17
31771;BME280;18343;50.152;8.182;2023-04-03T07:14:30;98538.53;;;5.22;97.10
31771;BME280;18343;50.152;8.182;2023-04-03T07:17:15;98548.28;;;5.33;96.82
31771;BME280;18343;50.152;8.182;2023-04-03T07:20:01;98556.84;;;5.36;96.38
31771;BME280;18343;50.152;8.182;2023-04-03T07:22:45;98555.34;;;5.43;96.31
31771;BME280;18343;50.152;8.182;2023-04-03T07:25:30;98558.31;;;5.50;95.99
31771;BME280;18343;50.152;8.182;2023-04-03T07:28:16;98552.78;;;5.63;96.57
31771;BME280;18343;50.152;8.182;2023-04-03T07:31:03;98551.84;;;5.73;96.11
31771;BME280;18343;50.152;8.182;2023-04-03T07:33:48;98558.75;;;5.86;95.97
31771;BME280;18343;50.152;8.182;2023-04-03T07:36:34;98566.53;;;5.89;95.39
31771;BME280;18343;50.152;8.182;2023-04-03T07:39:19;98562.59;;;5.93;95.80
31771;BME280;18343;50.152;8.182;2023-04-03T07:42:04;98570.47;;;6.04;95.83
31771;BME280;18343;50.152;8.182;2023-04-03T07:44:49;98572.03;;;6.06;95.86
31771;BME280;18343;50.152;8.182;2023-04-03T07:47:33;98560.50;;;6.06;94.51
31771;BME280;18343;50.152;8.182;2023-04-03T07:50:18;98568.97;;;6.11;95.06
31771;BME280;18343;50.152;8.182;2023-04-03T07:53:03;98561.56;;;6.24;95.08
31771;BME280;18343;50.152;8.182;2023-04-03T07:55:49;98576.31;;;6.38;94.93
31771;BME280;18343;50.152;8.182;2023-04-03T07:58:33;98576.22;;;6.49;94.95
31771;BME280;18343;50.152;8.182;2023-04-03T08:01:18;98573.41;;;6.51;94.11
31771;BME280;18343;50.152;8.182;2023-04-03T08:04:03;98570.72;;;6.51;93.48
31771;BME280;18343;50.152;8.182;2023-04-03T08:06:48;98573.81;;;6.65;94.13
31771;BME280;18343;50.152;8.182;2023-04-03T08:09:34;98573.69;;;6.67;93.63
31771;BME280;18343;50.152;8.182;2023-04-03T08:12:19;98585.50;;;6.84;93.16
31771;BME280;18343;50.152;8.182;2023-04-03T08:15:05;98574.38;;;6.69;92.25
31771;BME280;18343;50.152;8.182;2023-04-03T08:17:50;98575.94;;;6.71;91.88
31771;BME280;18343;50.152;8.182;2023-04-03T08:20:34;98578.03;;;6.97;93.37
31771;BME280;18343;50.152;8.182;2023-04-03T08:23:19;98584.94;;;6.99;89.97
31771;BME280;18343;50.152;8.182;2023-04-03T08:26:10;98579.44;;;7.10;91.28
31771;BME280;18343;50.152;8.182;2023-04-03T08:28:55;98574.09;;;7.10;91.60
31771;BME280;18343;50.152;8.182;2023-04-03T08:31:39;98577.84;;;7.27;91.49
31771;BME280;18343;50.152;8.182;2023-04-03T08:34:24;98572.88;;;7.42;91.03
31771;BME280;18343;50.152;8.182;2023-04-03T08:37:08;98574.13;;;7.47;89.83
31771;BME280;18343;50.152;8.182;2023-04-03T08:39:53;98570.91;;;7.44;90.33
31771;BME280;18343;50.152;8.182;2023-04-03T08:42:53;98574.00;;;7.49;88.92
31771;BME280;18343;50.152;8.182;2023-04-03T08:45:44;98566.09;;;7.57;89.33
31771;BME280;18343;50.152;8.182;2023-04-03T08:48:33;98571.44;;;7.57;87.02
31771;BME280;18343;50.152;8.182;2023-04-03T08:51:20;98573.75;;;7.33;81.53
31771;BME280;18343;50.152;8.182;2023-04-03T08:54:16;98569.13;;;7.35;86.59
31771;BME280;18343;50.152;8.182;2023-04-03T08:57:04;98577.38;;;7.41;86.61
31771;BME280;18343;50.152;8.182;2023-04-03T08:59:51;98567.94;;;7.47;86.14
31771;BME280;18343;50.152;8.182;2023-04-03T09:02:43;98564.38;;;7.66;85.57
31771;BME280;18343;50.152;8.182;2023-04-03T09:05:40;98568.22;;;7.91;86.16
31771;BME280;18343;50.152;8.182;2023-04-03T09:08:30;98586.25;;;7.89;83.74
31771;BME280;18343;50.152;8.182;2023-04-03T09:11:21;98570.88;;;7.91;85.20
31771;BME280;18343;50.152;8.182;2023-04-03T09:14:16;98576.22;;;7.63;81.58
31771;BME280;18343;50.152;8.182;2023-04-03T09:17:13;98565.84;;;7.78;82.14
31771;BME280;18343;50.152;8.182;2023-04-03T09:20:11;98577.22;;;7.90;81.64
31771;BME280;18343;50.152;8.182;2023-04-03T09:22:59;98571.06;;;8.07;76.63
31771;BME280;18343;50.152;8.182;2023-04-03T09:25:44;98572.09;;;8.24;81.40
31771;BME280;18343;50.152;8.182;2023-04-03T09:28:31;98566.72;;;8.24;79.44
31771;BME280;18343;50.152;8.182;2023-04-03T09:31:22;98571.03;;;7.89;77.89
31771;BME280;18343;50.152;8.182;2023-04-03T09:34:18;98573.00;;;7.87;77.99
31771;BME280;18343;50.152;8.182;2023-04-03T09:37:05;98568.50;;;7.88;78.09
31771;BME280;18343;50.152;8.182;2023-04-03T09:39:52;98565.72;;;7.79;77.36
31771;BME280;18343;50.152;8.182;2023-04-03T09:42:40;98553.44;;;7.77;76.93
31771;BME280;18343;50.152;8.182;2023-04-03T09:45:29;98562.03;;;7.80;77.59
31771;BME280;18343;50.152;8.182;2023-04-03T09:48:18;98556.50;;;7.92;77.24
31771;BME280;18343;50.152;8.182;2023-04-03T09:51:04;98563.19;;;8.05;77.79
31771;BME280;18343;50.152;8.182;2023-04-03T09:53:49;98560.16;;;7.91;76.34
31771;BME280;18343;50.152;8.182;2023-04-03T09:56:34;98559.19;;;7.92;76.50
31771;BME280;18343;50.152;8.182;2023-04-03T09:59:19;98553.63;;;8.21;74.20
31771;BME280;18343;50.152;8.182;2023-04-03T10:02:21;98563.53;;;8.20;75.25
31771;BME280;18343;50.152;8.182;2023-04-03T10:05:38;98565.56;;;8.08;74.67
31771;BME280;18343;50.152;8.182;2023-04-03T10:08:30;98559.56;;;7.97;73.42
31771;BME280;18343;50.152;8.182;2023-04-03T10:11:17;98562.94;;;7.99;73.62
31771;BME280;18343;50.152;8.182;2023-04-03T10:14:02;98557.00;;;8.23;74.03
31771;BME280;18343;50.152;8.182;2023-04-03T10:16:55;98560.59;;;8.13;72.72
31771;BME280;18343;50.152;8.182;2023-04-03T10:19:45;98566.66;;;7.88;72.15
31771;BME280;18343;50.152;8.182;2023-04-03T10:22:41;98566.13;;;8.12;73.14
31771;BME280;18343;50.152;8.182;2023-04-03T10:25:32;98557.63;;;8.17;72.09
31771;BME280;18343;50.152;8.182;2023-04-03T10:28:25;98557.53;;;8.36;71.63
31771;BME280;18343;50.152;8.182;2023-04-03T10:31:17;98555.50;;;8.20;71.99
31771;BME280;18343;50.152;8.182;2023-04-03T10:34:13;98562.00;;;8.18;71.14
31771;BME280;18343;50.152;8.182;2023-04-03T10:37:13;98552.81;;;8.20;70.10
31771;BME280;18343;50.152;8.182;2023-04-03T10:40:05;98555.19;;;7.96;68.79
31771;BME280;18343;50.152;8.182;2023-04-03T10:43:06;98559.66;;;8.05;69.75
31771;BME280;18343;50.152;8.182;2023-04-03T10:46:00;98559.31;;;8.18;70.20
31771;BME280;18343;50.152;8.182;2023-04-03T10:48:59;98558.38;;;8.36;70.40
31771;BME280;18343;50.152;8.182;2023-04-03T10:51:50;98555.44;;;8.02;67.64
31771;BME280;18343;50.152;8.182;2023-04-03T10:54:40;98558.94;;;7.85;67.86
31771;BME280;18343;50.152;8.182;2023-04-03T10:57:28;98552.72;;;8.12;67.96
31771;BME280;18343;50.152;8.182;2023-04-03T11:00:19;98548.66;;;8.53;68.97
31771;BME280;18343;50.152;8.182;2023-04-03T11:03:10;98550.50;;;8.88;69.34
31771;BME280;18343;50.152;8.182;2023-04-03T11:05:56;98555.41;;;8.93;67.63
31771;BME280;18343;50.152;8.182;2023-04-03T11:08:44;98548.78;;;9.05;65.22
31771;BME280;18343;50.152;8.182;2023-04-03T11:11:34;98549.63;;;9.05;65.65
31771;BME280;18343;50.152;8.182;2023-04-03T11:14:26;98540.69;;;8.97;64.58
31771;BME280;18343;50.152;8.182;2023-04-03T11:17:25;98539.72;;;9.06;64.94
31771;BME280;18343;50.152;8.182;2023-04-03T11:20:17;98543.69;;;9.20;64.85
31771;BME280;18343;50.152;8.182;2023-04-03T11:23:08;98538.34;;;9.45;64.50
31771;BME280;18343;50.152;8.182;2023-04-03T11:26:07;98543.38;;;9.48;64.07
31771;BME280;18343;50.152;8.182;2023-04-03T11:28:56;98534.59;;;9.38;63.00
31771;BME280;18343;50.152;8.182;2023-04-03T11:32:02;98531.13;;;9.20;60.78
31771;BME280;18343;50.152;8.182;2023-04-03T11:34:52;98523.53;;;9.15;61.81
31771;BME280;18343;50.152;8.182;2023-04-03T11:37:39;98524.22;;;9.18;60.97
31771;BME280;18343;50.152;8.182;2023-04-03T11:40:29;98527.22;;;9.14;61.46
31771;BME280;18343;50.152;8.182;2023-04-03T11:43:24;98523.38;;;9.43;61.74
31771;BME280;18343;50.152;8.182;2023-04-03T11:46:09;98515.41;;;9.33;59.48
31771;BME280;18343;50.152;8.182;2023-04-03T11:48:54;98508.78;;;9.45;59.67
31771;BME280;18343;50.152;8.182;2023-04-03T11:51:42;98500.28;;;9.50;58.98
31771;BME280;18343;50.152;8.182;2023-04-03T11:54:46;98508.38;;;9.32;58.45
31771;BME280;18343;50.152;8.182;2023-04-03T11:58:09;98510.59;;;9.37;57.64
31771;BME280;18343;50.152;8.182;2023-04-03T12:00:59;98500.75;;;9.45;58.08
31771;BME280;18343;50.152;8.182;2023-04-03T12:04:09;98495.75;;;9.59;58.10
31771;BME280;18343;50.152;8.182;2023-04-03T12:10:18;98508.72;;;9.29;56.05
31771;BME280;18343;50.152;8.182;2023-04-03T12:13:15;98500.06;;;9.43;56.71
31771;BME280;18343;50.152;8.182;2023-04-03T12:16:01;98489.53;;;9.50;56.33
31771;BME280;18343;50.152;8.182;2023-04-03T12:18:57;98503.53;;;9.36;55.85
31771;BME280;18343;50.152;8.182;2023-04-03T12:22:14;98496.81;;;9.66;55.65
31771;BME280;18343;50.152;8.182;2023-04-03T12:25:47;98498.75;;;9.47;53.96
31771;BME280;18343;50.152;8.182;2023-04-03T12:28:38;98498.59;;;9.49;54.00
31771;BME280;18343;50.152;8.182;2023-04-03T12:31:25;98490.91;;;9.54;54.36
31771;BME280;18343;50.152;8.182;2023-04-03T12:34:43;98486.38;;;9.63;53.11
31771;BME280;18343;50.152;8.182;2023-04-03T12:41:21;98481.00;;;9.55;51.29
31771;BME280;18343;50.152;8.182;2023-04-03T12:44:40;98478.09;;;9.82;52.70
31771;BME280;18343;50.152;8.182;2023-04-03T12:47:31;98468.19;;;9.91;52.01
31771;BME280;18343;50.152;8.182;2023-04-03T12:50:22;98477.94;;;9.92;51.48
31771;BME280;18343;50.152;8.182;2023-04-03T12:53:13;98478.25;;;9.89;51.33
31771;BME280;18343;50.152;8.182;2023-04-03T12:56:20;98462.13;;;9.89;49.93
31771;BME280;18343;50.152;8.182;2023-04-03T12:59:18;98470.94;;;9.57;49.91
31771;BME280;18343;50.152;8.182;2023-04-03T13:02:20;98467.56;;;9.55;49.70
31771;BME280;18343;50.152;8.182;2023-04-03T13:05:09;98474.28;;;9.59;48.50
31771;BME280;18343;50.152;8.182;2023-04-03T13:08:02;98471.25;;;10.04;49.75
31771;BME280;18343;50.152;8.182;2023-04-03T13:10:54;98472.63;;;10.08;49.15
31771;BME280;18343;50.152;8.182;2023-04-03T13:13:40;98468.81;;;10.27;48.74
31771;BME280;18343;50.152;8.182;2023-04-03T13:16:37;98470.69;;;10.34;48.31
31771;BME280;18343;50.152;8.182;2023-04-03T13:19:24;98472.38;;;10.43;48.38
31771;BME280;18343;50.152;8.182;2023-04-03T13:22:25;98458.78;;;10.53;47.86
31771;BME280;18343;50.152;8.182;2023-04-03T13:25:14;98456.41;;;10.58;48.12
31771;BME280;18343;50.152;8.182;2023-04-03T13:28:02;98453.03;;;10.48;47.17
31771;BME280;18343;50.152;8.182;2023-04-03T13:30:59;98455.75;;;10.56;46.73
31771;BME280;18343;50.152;8.182;2023-04-03T13:33:56;98446.16;;;10.62;46.64
31771;BME280;18343;50.152;8.182;2023-04-03T13:36:45;98451.19;;;10.73;46.52
31771;BME280;18343;50.152;8.182;2023-04-03T13:39:31;98452.19;;;10.72;46.54
31771;BME280;18343;50.152;8.182;2023-04-03T13:42:23;98453.88;;;10.73;46.35
31771;BME280;18343;50.152;8.182;2023-04-03T13:45:20;98448.50;;;10.73;45.63
31771;BME280;18343;50.152;8.182;2023-04-03T13:48:18;98452.22;;;10.80;44.85
31771;BME280;18343;50.152;8.182;2023-04-03T13:51:05;98453.38;;;10.69;45.00
31771;BME280;18343;50.152;8.182;2023-04-03T13:53:54;98454.72;;;10.73;44.57
31771;BME280;18343;50.152;8.182;2023-04-03T13:56:40;98441.28;;;10.73;43.93
31771;BME280;18343;50.152;8.182;2023-04-03T13:59:30;98445.66;;;10.91;44.50
31771;BME280;18343;50.152;8.182;2023-04-03T14:02:22;98436.56;;;10.83;44.35
31771;BME280;18343;50.152;8.182;2023-04-03T14:05:08;98440.28;;;10.58;43.81
31771;BME280;18343;50.152;8.182;2023-04-03T14:07:54;98440.25;;;10.74;43.97
31771;BME280;18343;50.152;8.182;2023-04-03T14:10:39;98434.38;;;10.71;43.84
31771;BME280;18343;50.152;8.182;2023-04-03T14:13:43;98436.88;;;10.97;43.82
31771;BME280;18343;50.152;8.182;2023-04-03T14:16:32;98431.31;;;10.98;43.57
31771;BME280;18343;50.152;8.182;2023-04-03T14:19:22;98425.13;;;10.90;43.98
31771;BME280;18343;50.152;8.182;2023-04-03T14:22:15;98436.66;;;11.23;43.35
31771;BME280;18343;50.152;8.182;2023-04-03T14:25:01;98430.63;;;11.21;43.15
31771;BME280;18343;50.152;8.182;2023-04-03T14:27:49;98428.28;;;11.17;42.97
31771;BME280;18343;50.152;8.182;2023-04-03T14:30:34;98427.03;;;11.36;43.27
31771;BME280;18343;50.152;8.182;2023-04-03T14:33:22;98419.22;;;11.49;43.28
31771;BME280;18343;50.152;8.182;2023-04-03T14:36:14;98419.09;;;11.43;42.96
31771;BME280;18343;50.152;8.182;2023-04-03T14:38:59;98411.88;;;11.35;42.07
31771;BME280;18343;50.152;8.182;2023-04-03T14:41:44;98408.72;;;11.24;42.12
31771;BME280;18343;50.152;8.182;2023-04-03T14:44:29;98419.03;;;11.04;41.58
31771;BME280;18343;50.152;8.182;2023-04-03T14:47:17;98409.25;;;11.19;42.20
31771;BME280;18343;50.152;8.182;2023-04-03T14:50:06;98412.41;;;11.23;41.65
31771;BME280;18343;50.152;8.182;2023-04-03T14:52:55;98413.75;;;11.27;41.94
31771;BME280;18343;50.152;8.182;2023-04-03T14:55:43;98410.94;;;11.20;41.37
31771;BME280;18343;50.152;8.182;2023-04-03T14:58:28;98411.09;;;11.18;41.51
31771;BME280;18343;50.152;8.182;2023-04-03T15:01:13;98410.13;;;11.03;41.63
31771;BME280;18343;50.152;8.182;2023-04-03T15:03:57;98409.81;;;10.90;41.58
31771;BME280;18343;50.152;8.182;2023-04-03T15:06:42;98411.84;;;10.88;41.28
31771;BME280;18343;50.152;8.182;2023-04-03T15:09:29;98407.13;;;10.90;41.17